createdAt,value
2023-04-11T00:01:17.517Z,33.47
2023-04-11T00:03:42.162Z,36.85
2023-04-11T00:06:07.269Z,35.70
2023-04-11T00:08:31.898Z,31.60
2023-04-11T00:10:56.342Z,35.97
2023-04-11T00:13:23.910Z,37.50
2023-04-11T00:15:48.763Z,34.70
2023-04-11T00:18:13.821Z,32.10
2023-04-11T00:20:38.277Z,37.67
2023-04-11T00:23:02.985Z,35.00
2023-04-11T00:25:27.750Z,32.95
2023-04-11T00:27:52.173Z,34.88
2023-04-11T00:30:18.051Z,35.53
2023-04-11T00:32:42.640Z,33.08
2023-04-11T00:35:08.831Z,35.15
2023-04-11T00:37:36.365Z,39.20
2023-04-11T00:40:01.415Z,34.42
2023-04-11T00:42:27.367Z,37.50
2023-04-11T00:44:52.109Z,40.33
2023-04-11T00:47:18.097Z,37.35
2023-04-11T00:49:42.633Z,39.60
2023-04-11T00:52:07.707Z,35.75
2023-04-11T00:54:32.297Z,39.05
2023-04-11T00:56:59.103Z,37.58
2023-04-11T00:59:23.639Z,45.10
2023-04-11T01:01:50.096Z,44.08
2023-04-11T01:04:17.591Z,41.45
2023-04-11T01:06:42.743Z,39.63
2023-04-11T01:09:07.291Z,37.00
2023-04-11T01:11:32.794Z,39.80
2023-04-11T01:13:57.413Z,35.63
2023-04-11T01:16:22.077Z,39.40
2023-04-11T01:18:46.646Z,35.90
2023-04-11T01:21:12.673Z,36.95
2023-04-11T01:23:38.456Z,36.80
2023-04-11T01:26:03.038Z,34.65
2023-04-11T01:28:28.096Z,32.28
2023-04-11T01:30:52.957Z,37.10
2023-04-11T01:33:21.264Z,33.72
2023-04-11T01:35:46.517Z,29.65
2023-04-11T01:38:12.194Z,29.83
2023-04-11T01:40:39.366Z,33.40
2023-04-11T01:43:03.831Z,29.63
2023-04-11T01:45:29.123Z,30.40
2023-04-11T01:47:54.693Z,31.63
2023-04-11T01:50:19.488Z,31.45
2023-04-11T01:52:43.959Z,31.92
2023-04-11T01:55:09.163Z,32.90
2023-04-11T01:57:36.222Z,31.42
2023-04-11T02:00:01.006Z,33.60
2023-04-11T02:02:26.213Z,30.95
2023-04-11T02:04:50.789Z,29.92
2023-04-11T02:07:15.172Z,30.80
2023-04-11T02:09:39.722Z,30.27
2023-04-11T02:12:04.517Z,32.30
2023-04-11T02:14:41.870Z,29.98
2023-04-11T02:17:09.950Z,34.78
2023-04-11T02:19:34.710Z,27.80
2023-04-11T02:21:59.180Z,31.63
2023-04-11T02:24:23.591Z,31.92
2023-04-11T02:26:48.129Z,31.08
2023-04-11T02:29:12.548Z,27.58
2023-04-11T02:31:39.270Z,28.75
2023-04-11T02:34:03.875Z,31.92
2023-04-11T02:36:28.613Z,27.73
2023-04-11T02:38:53.081Z,28.48
2023-04-11T02:41:17.616Z,25.85
2023-04-11T02:43:42.017Z,27.55
2023-04-11T02:46:12.670Z,26.48
2023-04-11T02:48:41.890Z,23.27
2023-04-11T02:51:08.033Z,25.88
2023-04-11T02:53:32.559Z,25.65
2023-04-11T02:55:56.933Z,25.95
2023-04-11T02:58:21.596Z,23.40
2023-04-11T03:00:46.492Z,23.77
2023-04-11T03:03:12.246Z,23.70
2023-04-11T03:05:42.257Z,24.17
2023-04-11T03:08:09.052Z,26.13
2023-04-11T03:10:36.154Z,25.55
2023-04-11T03:13:02.037Z,23.35
2023-04-11T03:15:28.095Z,21.67
2023-04-11T03:17:52.806Z,23.73
2023-04-11T03:20:19.939Z,24.88
2023-04-11T03:22:49.598Z,24.67
2023-04-11T03:25:15.657Z,21.48
2023-04-11T03:27:40.882Z,22.08
2023-04-11T03:30:06.143Z,22.92
2023-04-11T03:32:39.908Z,26.17
2023-04-11T03:35:05.116Z,23.38
2023-04-11T03:37:29.630Z,22.77
2023-04-11T03:39:55.602Z,22.83
2023-04-11T03:42:20.109Z,21.00
2023-04-11T03:44:48.724Z,20.90
2023-04-11T03:47:13.149Z,25.25
2023-04-11T03:49:40.882Z,20.60
2023-04-11T03:52:07.541Z,20.73
2023-04-11T03:54:32.452Z,22.10
2023-04-11T03:56:58.766Z,22.35
2023-04-11T03:59:24.633Z,19.52
2023-04-11T04:01:59.142Z,23.65
2023-04-11T04:04:24.190Z,22.27
2023-04-11T04:06:59.282Z,20.27
2023-04-11T04:09:31.947Z,19.15
2023-04-11T04:11:58.021Z,19.23
2023-04-11T04:14:32.801Z,19.20
2023-04-11T04:16:57.867Z,21.58
2023-04-11T04:19:26.402Z,19.90
2023-04-11T04:21:52.438Z,22.00
2023-04-11T04:24:17.580Z,31.48
2023-04-11T04:26:55.320Z,21.35
2023-04-11T04:29:39.089Z,20.40
2023-04-11T04:32:11.098Z,19.20
2023-04-11T04:34:49.578Z,16.70
2023-04-11T04:37:24.393Z,18.13
2023-04-11T04:40:02.165Z,19.00
2023-04-11T04:42:30.986Z,21.33
2023-04-11T04:45:02.116Z,20.15
2023-04-11T04:47:32.508Z,18.88
2023-04-11T04:49:57.577Z,19.73
2023-04-11T04:52:22.090Z,20.35
2023-04-11T04:54:46.948Z,22.58
2023-04-11T04:57:11.527Z,21.23
2023-04-11T04:59:37.232Z,18.35
2023-04-11T05:02:09.828Z,18.75
2023-04-11T05:04:35.619Z,23.95
2023-04-11T05:07:00.874Z,19.85
2023-04-11T05:09:27.579Z,26.60
2023-04-11T05:12:01.312Z,20.70
2023-04-11T05:14:25.998Z,17.13
2023-04-11T05:16:50.492Z,14.85
2023-04-11T05:19:16.814Z,24.98
2023-04-11T05:21:44.456Z,17.27
2023-04-11T05:24:10.153Z,26.80
2023-04-11T05:26:36.741Z,19.52
2023-04-11T05:29:02.107Z,18.05
2023-04-11T05:31:26.915Z,24.42
2023-04-11T05:33:51.704Z,29.70
2023-04-11T05:36:17.716Z,15.98
2023-04-11T05:38:42.821Z,22.90
2023-04-11T05:41:07.832Z,20.77
2023-04-11T05:43:32.682Z,17.85
2023-04-11T05:45:59.342Z,16.45
2023-04-11T05:48:26.035Z,14.32
2023-04-11T05:50:51.755Z,15.48
2023-04-11T05:53:17.750Z,19.15
2023-04-11T05:55:42.794Z,16.85
2023-04-11T05:58:07.434Z,16.17
2023-04-11T06:00:32.608Z,16.85
2023-04-11T06:02:57.749Z,20.73
2023-04-11T06:05:24.326Z,20.55
2023-04-11T06:07:49.016Z,20.50
2023-04-11T06:10:15.065Z,16.70
2023-04-11T06:12:39.524Z,19.92
2023-04-11T06:15:04.371Z,20.00
2023-04-11T06:17:29.165Z,17.45
2023-04-11T06:19:53.705Z,17.08
2023-04-11T06:22:18.596Z,15.07
2023-04-11T06:24:45.230Z,16.30
2023-04-11T06:27:11.851Z,18.05
2023-04-11T06:29:36.437Z,14.40
2023-04-11T06:32:00.979Z,14.05
2023-04-11T06:34:25.664Z,17.83
2023-04-11T06:36:50.893Z,23.25
2023-04-11T06:39:16.917Z,21.17
2023-04-11T06:41:41.328Z,14.32
2023-04-11T06:44:07.254Z,19.15
2023-04-11T06:46:31.795Z,15.23
2023-04-11T06:48:56.277Z,16.58
2023-04-11T06:51:20.793Z,13.88
2023-04-11T06:53:45.160Z,34.75
2023-04-11T06:56:11.971Z,22.48
2023-04-11T06:58:38.846Z,14.55
2023-04-11T07:01:04.841Z,25.95
2023-04-11T07:03:31.026Z,17.88
2023-04-11T07:05:55.705Z,21.95
2023-04-11T07:08:20.722Z,16.55
2023-04-11T07:10:45.216Z,22.33
2023-04-11T07:13:09.617Z,24.75
2023-04-11T07:15:34.166Z,17.35
2023-04-11T07:18:00.009Z,17.25
2023-04-11T07:20:27.839Z,22.55
2023-04-11T07:22:52.479Z,18.77
2023-04-11T07:25:17.158Z,32.33
2023-04-11T07:27:43.910Z,20.25
2023-04-11T07:30:12.577Z,18.25
2023-04-11T07:32:37.162Z,17.10
2023-04-11T07:35:03.076Z,12.23
2023-04-11T07:37:27.879Z,15.07
2023-04-11T07:39:52.465Z,14.07
2023-04-11T07:42:16.816Z,13.70
2023-04-11T07:44:41.298Z,23.05
2023-04-11T07:47:05.737Z,16.90
2023-04-11T07:49:30.273Z,13.00
2023-04-11T07:51:56.145Z,16.60
2023-04-11T07:54:20.605Z,14.35
2023-04-11T07:56:45.112Z,17.17
2023-04-11T07:59:09.595Z,10.95
2023-04-11T08:01:34.047Z,15.77
2023-04-11T08:03:58.976Z,53.42
2023-04-11T08:06:24.343Z,9.55
2023-04-11T08:08:51.347Z,10.93
2023-04-11T08:11:15.841Z,13.68
2023-04-11T08:13:40.637Z,24.98
2023-04-11T08:16:08.072Z,9.32
2023-04-11T08:18:33.026Z,14.23
2023-04-11T08:20:57.552Z,12.35
2023-04-11T08:23:22.799Z,11.15
2023-04-11T08:25:49.028Z,13.15
2023-04-11T08:28:13.501Z,10.98
2023-04-11T08:30:38.015Z,12.75
2023-04-11T08:33:02.589Z,14.55
2023-04-11T08:35:27.124Z,13.07
2023-04-11T08:37:52.142Z,21.25
2023-04-11T08:40:17.384Z,20.38
2023-04-11T08:42:44.317Z,19.60
2023-04-11T08:45:10.374Z,12.18
2023-04-11T08:47:35.982Z,15.18
2023-04-11T08:50:03.118Z,13.55
2023-04-11T08:52:28.670Z,14.40
2023-04-11T08:54:56.337Z,16.40
2023-04-11T08:57:31.822Z,10.75
2023-04-11T09:00:00.344Z,8.43
2023-04-11T09:02:25.658Z,12.07
2023-04-11T09:04:51.734Z,15.90
2023-04-11T09:07:19.349Z,13.15
2023-04-11T09:09:44.727Z,24.83
2023-04-11T09:12:10.341Z,8.57
2023-04-11T09:14:35.221Z,13.93
2023-04-11T09:17:03.000Z,13.10
2023-04-11T09:19:29.436Z,12.55
2023-04-11T09:21:55.260Z,9.15
2023-04-11T09:24:20.124Z,10.82
2023-04-11T09:26:45.325Z,10.70
2023-04-11T09:29:10.385Z,10.48
2023-04-11T09:31:42.812Z,10.45
2023-04-11T09:34:09.162Z,21.00
2023-04-11T09:36:36.974Z,8.95
2023-04-11T09:39:02.626Z,17.90
2023-04-11T09:41:35.094Z,10.27
2023-04-11T09:44:00.257Z,13.77
2023-04-11T09:46:25.880Z,18.40
2023-04-11T09:48:51.309Z,9.05
2023-04-11T09:51:34.380Z,11.27
2023-04-11T09:54:00.617Z,9.05
2023-04-11T09:56:26.728Z,8.23
2023-04-11T09:58:51.710Z,12.07
2023-04-11T10:01:17.142Z,10.70
2023-04-11T10:03:43.053Z,12.50
2023-04-11T10:06:11.367Z,17.55
2023-04-11T10:08:38.660Z,11.15
2023-04-11T10:11:05.100Z,12.25
2023-04-11T10:13:41.354Z,11.38
2023-04-11T10:16:11.434Z,9.10
2023-04-11T10:18:37.213Z,14.02
2023-04-11T10:21:01.834Z,9.35
2023-04-11T10:23:26.381Z,11.38
2023-04-11T10:25:58.632Z,13.02
2023-04-11T10:28:47.780Z,12.95
2023-04-11T10:31:17.207Z,13.30
2023-04-11T10:34:02.887Z,12.73
2023-04-11T10:36:27.765Z,9.02
2023-04-11T10:38:52.504Z,10.02
2023-04-11T10:41:28.812Z,11.77
2023-04-11T10:43:54.449Z,12.18
2023-04-11T10:46:20.692Z,15.70
2023-04-11T10:48:59.312Z,15.90
2023-04-11T10:51:28.500Z,16.02
2023-04-11T10:53:53.890Z,15.60
2023-04-11T10:56:57.447Z,20.10
2023-04-11T10:59:59.948Z,16.02
2023-04-11T11:02:37.414Z,11.57
2023-04-11T11:05:04.174Z,13.45
2023-04-11T11:07:30.695Z,13.27
2023-04-11T11:09:55.643Z,12.98
2023-04-11T11:12:21.899Z,12.10
2023-04-11T11:14:48.547Z,15.00
2023-04-11T11:17:14.464Z,14.43
2023-04-11T11:19:39.445Z,14.73
2023-04-11T11:22:06.321Z,15.23
2023-04-11T11:24:32.154Z,12.60
2023-04-11T11:26:59.834Z,19.27
2023-04-11T11:29:35.122Z,14.82
2023-04-11T11:32:01.315Z,13.80
2023-04-11T11:34:29.396Z,10.23
2023-04-11T11:36:56.548Z,15.43
2023-04-11T11:39:23.846Z,16.25
2023-04-11T11:41:49.733Z,14.45
2023-04-11T11:44:23.174Z,12.23
2023-04-11T11:51:44.208Z,14.52
2023-04-11T11:54:15.882Z,17.88
2023-04-11T11:56:41.824Z,13.13
2023-04-11T11:59:07.582Z,15.65
2023-04-11T12:01:32.697Z,13.35
2023-04-11T12:03:58.258Z,13.85
2023-04-11T12:06:30.047Z,14.55
2023-04-11T12:09:03.073Z,14.93
2023-04-11T12:11:27.843Z,14.77
2023-04-11T12:13:54.907Z,12.52
2023-04-11T12:16:24.163Z,18.02
2023-04-11T12:18:49.101Z,13.63
2023-04-11T12:21:14.463Z,13.50
2023-04-11T12:23:40.713Z,13.55
2023-04-11T12:26:05.880Z,14.18
2023-04-11T12:28:30.649Z,12.85
2023-04-11T12:30:55.389Z,14.23
2023-04-11T12:33:19.877Z,11.57
2023-04-11T12:35:44.583Z,13.20
2023-04-11T12:38:14.892Z,13.75
2023-04-11T12:40:43.868Z,11.77
2023-04-11T12:43:08.473Z,11.30
2023-04-11T12:45:33.890Z,15.95
2023-04-11T12:47:58.560Z,12.32
2023-04-11T12:50:24.517Z,16.48
2023-04-11T12:52:49.612Z,17.85
2023-04-11T12:55:14.906Z,14.48
2023-04-11T12:57:41.628Z,16.70
2023-04-11T13:00:08.369Z,15.95
2023-04-11T13:02:41.586Z,13.77
2023-04-11T13:05:09.871Z,18.48
2023-04-11T13:07:35.758Z,13.93
2023-04-11T13:10:00.536Z,12.00
2023-04-11T13:12:25.093Z,11.00
2023-04-11T13:14:51.118Z,12.75
2023-04-11T13:17:15.760Z,15.93
2023-04-11T13:19:42.087Z,12.85
2023-04-11T13:22:07.049Z,12.40
2023-04-11T13:24:33.035Z,12.63
2023-04-11T13:26:59.102Z,10.65
2023-04-11T13:29:23.846Z,10.52
2023-04-11T13:31:52.169Z,12.10
2023-04-11T13:34:17.085Z,15.20
2023-04-11T13:36:41.853Z,11.95
2023-04-11T13:39:09.318Z,12.70
2023-04-11T13:41:34.393Z,11.45
2023-04-11T13:43:59.175Z,14.80
2023-04-11T13:46:24.913Z,12.90
2023-04-11T13:48:51.720Z,15.75
2023-04-11T13:51:16.356Z,9.82
2023-04-11T13:53:43.418Z,15.38
2023-04-11T13:56:09.404Z,15.38
2023-04-11T13:58:34.485Z,15.65
2023-04-11T14:01:00.239Z,13.60
2023-04-11T14:03:25.746Z,15.15
2023-04-11T14:05:53.109Z,14.02
2023-04-11T14:08:18.030Z,18.60
2023-04-11T14:10:42.807Z,12.95
2023-04-11T14:13:07.450Z,15.27
2023-04-11T14:15:32.235Z,12.38
2023-04-11T14:17:57.095Z,14.38
2023-04-11T14:20:22.050Z,9.60
2023-04-11T14:22:48.311Z,13.45
2023-04-11T14:25:15.866Z,16.88
2023-04-11T14:27:43.729Z,24.85
2023-04-11T14:30:10.252Z,20.05
2023-04-11T14:32:37.739Z,16.77
2023-04-11T14:35:04.470Z,13.18
2023-04-11T14:37:29.240Z,18.73
2023-04-11T14:39:55.502Z,12.90
2023-04-11T14:42:21.059Z,13.52
2023-04-11T14:44:45.819Z,18.30
2023-04-11T14:47:10.590Z,17.90
2023-04-11T14:49:35.378Z,16.33
2023-04-11T14:52:01.359Z,26.08
2023-04-11T14:54:26.541Z,15.07
2023-04-11T14:56:53.327Z,14.38
2023-04-11T14:59:18.234Z,17.60
2023-04-11T15:01:43.393Z,14.93
2023-04-11T15:04:08.172Z,13.20
2023-04-11T15:06:33.236Z,16.75
2023-04-11T15:08:57.980Z,15.98
2023-04-11T15:11:22.865Z,17.77
2023-04-11T15:13:52.914Z,16.60
2023-04-11T15:18:44.709Z,17.27
2023-04-11T15:21:09.771Z,13.60
2023-04-11T15:23:34.745Z,18.42
2023-04-11T15:26:00.726Z,21.33
2023-04-11T15:28:26.941Z,19.35
2023-04-11T15:30:54.419Z,24.77
2023-04-11T15:33:20.928Z,20.92
2023-04-11T15:35:46.562Z,21.85
2023-04-11T15:38:11.430Z,22.35
2023-04-11T15:40:36.149Z,21.73
2023-04-11T15:43:01.352Z,22.52
2023-04-11T15:45:26.143Z,24.20
2023-04-11T15:47:52.122Z,25.73
2023-04-11T15:50:17.582Z,19.30
2023-04-11T15:52:43.075Z,18.58
2023-04-11T15:55:09.051Z,21.42
2023-04-11T15:57:33.776Z,17.00
2023-04-11T15:59:59.639Z,18.08
2023-04-11T16:02:24.470Z,20.88
2023-04-11T16:04:53.990Z,20.15
2023-04-11T16:07:19.611Z,19.85
2023-04-11T16:09:44.343Z,22.92
2023-04-11T16:12:09.055Z,18.65
2023-04-11T16:14:33.651Z,18.17
2023-04-11T16:16:58.605Z,23.00
2023-04-11T16:19:23.645Z,21.17
2023-04-11T16:21:50.091Z,20.33
2023-04-11T16:24:14.640Z,20.00
2023-04-11T16:26:39.152Z,20.05
2023-04-11T16:29:05.879Z,19.83
2023-04-11T16:31:31.633Z,19.92
2023-04-11T16:33:56.915Z,22.85
2023-04-11T16:36:22.313Z,20.55
2023-04-11T16:38:49.750Z,23.23
2023-04-11T16:41:14.657Z,21.80
2023-04-11T16:43:39.218Z,19.42
2023-04-11T16:46:03.919Z,19.02
2023-04-11T16:48:28.532Z,23.90
2023-04-11T16:50:53.061Z,19.08
2023-04-11T16:53:18.588Z,18.38
2023-04-11T16:55:44.603Z,24.00
2023-04-11T16:58:10.328Z,24.02
2023-04-11T17:00:34.865Z,15.38
2023-04-11T17:02:59.550Z,17.23
2023-04-11T17:05:25.111Z,19.00
2023-04-11T17:07:49.628Z,16.67
2023-04-11T17:10:14.204Z,19.13
2023-04-11T17:12:40.121Z,20.60
2023-04-11T17:15:07.058Z,18.98
2023-04-11T17:17:33.483Z,23.08
2023-04-11T17:19:58.091Z,83.43
2023-04-11T17:22:22.591Z,50.35
2023-04-11T17:24:47.091Z,84.65
2023-04-11T17:27:11.638Z,23.98
2023-04-11T17:29:37.465Z,20.13
2023-04-11T17:32:02.586Z,45.15
2023-04-11T17:34:27.282Z,56.70
2023-04-11T17:36:51.817Z,43.05
2023-04-11T17:39:17.882Z,24.25
2023-04-11T17:41:42.578Z,23.52
2023-04-11T17:44:07.012Z,27.55
2023-04-11T17:46:32.842Z,36.08
2023-04-11T17:48:57.331Z,25.05
2023-04-11T17:51:21.803Z,19.88
2023-04-11T17:53:46.486Z,19.17
2023-04-11T17:56:11.694Z,16.73
2023-04-11T17:58:36.172Z,17.77
2023-04-11T18:01:00.700Z,20.55
2023-04-11T18:03:26.944Z,23.27
2023-04-11T18:05:52.366Z,22.30
2023-04-11T18:08:16.885Z,20.30
2023-04-11T18:10:41.420Z,20.08
2023-04-11T18:13:05.870Z,15.07
2023-04-11T18:15:30.450Z,17.60
2023-04-11T18:17:55.697Z,17.60
2023-04-11T18:20:21.801Z,18.30
2023-04-11T18:22:47.966Z,19.48
2023-04-11T18:25:13.378Z,18.38
2023-04-11T18:27:38.813Z,18.15
2023-04-11T18:30:07.529Z,20.65
2023-04-11T18:32:37.024Z,20.27
2023-04-11T18:35:08.675Z,18.00
2023-04-11T18:37:35.824Z,17.80
2023-04-11T18:40:00.947Z,16.65
2023-04-11T18:42:25.949Z,20.67
2023-04-11T18:44:51.411Z,18.05
2023-04-11T18:47:17.522Z,19.05
2023-04-11T18:49:43.202Z,20.00
2023-04-11T18:52:07.848Z,14.40
2023-04-11T18:54:34.218Z,13.27
2023-04-11T18:56:59.603Z,18.55
2023-04-11T18:59:29.286Z,17.23
2023-04-11T19:01:55.076Z,16.80
2023-04-11T19:04:20.704Z,13.63
2023-04-11T19:06:45.787Z,20.55
2023-04-11T19:09:10.636Z,15.95
2023-04-11T19:11:38.551Z,34.38
2023-04-11T19:14:03.484Z,24.02
2023-04-11T19:16:28.274Z,18.42
2023-04-11T19:18:53.024Z,18.17
2023-04-11T19:21:18.385Z,17.17
2023-04-11T19:23:43.657Z,17.73
2023-04-11T19:26:09.765Z,22.45
2023-04-11T19:28:35.995Z,20.88
2023-04-11T19:31:03.858Z,17.27
2023-04-11T19:33:28.829Z,18.73
2023-04-11T19:35:54.295Z,16.25
2023-04-11T19:38:19.028Z,15.55
2023-04-11T19:40:43.757Z,15.35
2023-04-11T19:43:11.033Z,14.95
2023-04-11T19:45:39.182Z,19.33
2023-04-11T19:48:10.020Z,19.85
2023-04-11T19:50:38.082Z,17.65
2023-04-11T19:53:03.495Z,14.63
2023-04-11T19:55:29.513Z,15.23
2023-04-11T19:57:54.565Z,15.35
2023-04-11T20:00:19.615Z,13.65
2023-04-11T20:02:47.355Z,16.10
2023-04-11T20:05:12.309Z,12.02
2023-04-11T20:07:37.272Z,13.88
2023-04-11T20:10:02.150Z,14.88
2023-04-11T20:12:27.754Z,16.20
2023-04-11T20:14:52.438Z,12.85
2023-04-11T20:17:16.885Z,11.98
2023-04-11T20:19:44.434Z,11.52
2023-04-11T20:22:10.905Z,14.95
2023-04-11T20:24:35.904Z,13.25
2023-04-11T20:27:00.917Z,13.55
2023-04-11T20:29:30.883Z,16.25
2023-04-11T20:34:19.661Z,17.23
2023-04-11T20:36:45.853Z,16.90
2023-04-11T20:39:10.570Z,14.32
2023-04-11T20:41:35.074Z,17.65
2023-04-11T20:43:59.762Z,16.85
2023-04-11T20:46:24.746Z,14.85
2023-04-11T20:48:50.027Z,15.32
2023-04-11T20:51:16.067Z,14.80
2023-04-11T20:53:41.882Z,15.88
2023-04-11T20:56:06.850Z,14.88
2023-04-11T20:58:31.229Z,15.30
2023-04-11T21:00:55.936Z,17.42
2023-04-11T21:03:20.703Z,13.68
2023-04-11T21:05:46.654Z,15.35
2023-04-11T21:08:11.589Z,15.95
2023-04-11T21:10:37.477Z,14.48
2023-04-11T21:13:01.848Z,13.88
2023-04-11T21:15:26.358Z,17.25
2023-04-11T21:17:52.279Z,16.85
2023-04-11T21:20:20.397Z,17.15
2023-04-11T21:22:44.988Z,15.93
2023-04-11T21:25:10.247Z,14.05
2023-04-11T21:27:36.246Z,14.70
2023-04-11T21:30:00.783Z,19.08
2023-04-11T21:33:23.678Z,21.02
2023-04-11T21:36:03.202Z,18.38
2023-04-11T21:38:27.890Z,17.05
2023-04-11T21:40:52.441Z,18.48
2023-04-11T21:43:18.534Z,22.55
2023-04-11T21:46:15.579Z,23.40
2023-04-11T21:48:43.228Z,19.48
2023-04-11T21:51:08.340Z,18.10
2023-04-11T21:53:35.440Z,20.70
2023-04-11T21:55:59.944Z,19.55
2023-04-11T21:58:29.925Z,23.95
2023-04-11T22:00:54.682Z,18.05
2023-04-11T22:03:20.368Z,21.25
2023-04-11T22:05:45.653Z,20.88
2023-04-11T22:08:11.888Z,16.67
2023-04-11T22:10:44.963Z,15.45
2023-04-11T22:13:11.769Z,13.02
2023-04-11T22:15:40.114Z,14.30
2023-04-11T22:18:04.643Z,15.25
2023-04-11T22:20:29.072Z,11.13
2023-04-11T22:22:53.690Z,11.65
2023-04-11T22:25:18.461Z,13.52
2023-04-11T22:27:44.813Z,11.05
2023-04-11T22:30:11.264Z,10.52
2023-04-11T22:32:38.189Z,12.85
2023-04-11T22:35:02.762Z,11.90
2023-04-11T22:37:27.795Z,11.77
2023-04-11T22:39:52.391Z,12.75
2023-04-11T22:42:16.985Z,10.63
2023-04-11T22:44:42.234Z,14.57
2023-04-11T22:47:08.985Z,12.20
2023-04-11T22:49:40.556Z,10.77
2023-04-11T22:52:05.608Z,12.82
2023-04-11T22:54:30.413Z,10.40
2023-04-11T22:56:57.267Z,12.35
2023-04-11T22:59:21.750Z,15.68
2023-04-11T23:01:47.202Z,14.50
2023-04-11T23:04:11.715Z,12.57
2023-04-11T23:06:37.737Z,12.20
2023-04-11T23:09:02.172Z,12.27
2023-04-11T23:11:26.749Z,11.35
2023-04-11T23:13:53.651Z,11.77
2023-04-11T23:16:18.301Z,12.95
2023-04-11T23:18:42.751Z,12.80
2023-04-11T23:21:13.217Z,11.80
2023-04-11T23:23:40.711Z,12.15
2023-04-11T23:26:05.777Z,11.45
2023-04-11T23:28:30.269Z,12.60
2023-04-11T23:30:55.868Z,9.73
2023-04-11T23:33:22.172Z,9.52
2023-04-11T23:35:47.227Z,11.63
2023-04-11T23:38:11.742Z,8.60
2023-04-11T23:40:38.484Z,8.25
2023-04-11T23:43:02.950Z,10.02
2023-04-11T23:45:27.614Z,11.48
2023-04-11T23:47:52.949Z,10.02
2023-04-11T23:50:17.875Z,10.65
2023-04-11T23:52:42.941Z,12.68
2023-04-11T23:55:08.892Z,11.77
2023-04-11T23:57:34.797Z,9.95
2023-04-11T23:59:59.298Z,13.07
